Pireps
You are here: Olympic Virtual Pireps

Flight OLY940

  • Submitted By: Stavros Sarikas
  • Departure Airport: Eleftherios Venizelos International Airport (LGAV)
  • Arrival Airport: Dimokritos Airport (LGAL)
  • Aircraft: A320-200 (SX-OAH)
  • Flight Time: 00.52
  • Date Submitted: 15/09/2017
  • Route: NEVRA UG33 LMO
  • Status: Accepted
Flight Details
Gross Revenue:
(138 load / € 55.00 per unit
€ 7, 590.00
Fuel Cost:
(-659 fuel used @ 0.19 / unit)
(€ -125.21)

Additional Log Information:

View Log

Aircraft Used in flight is Airbus A320 British Airways G-EUUU
22:27 Boarding
22:27 Beacon Lights ON at 320 Feet
22:27 Brakes are On
22:27 Navigation Lights ON at 320 Feet
22:28 In Air Refuel Suspected
22:31 Engine 2 Started
22:32 Engine 1 Started
22:34 Brakes are Released
22:34 Pushing back
22:34 Flaps 3 Selected at 320ft and 0kts
22:35 Taxi Lights ON at 320 Feet
22:36 Landing Lights ON at 320 AGL
22:36 Strobe Lights ON at 320 Feet
22:37 You Took off @ 141 Knots and Flaps at Position 3 With a heading of 37 Degrees
Departure Weather LGAV 151920Z 26002KT CAVOK 24/15 Q1013 NOSIG
Departure Coordinates 37.939686731778/ 23.9585226687056
Takeoff Weight=60660KG Fuel Weight=4817KG
22:37 Landing Gear Up @ 150 Knots and 390 Feet
22:37 Taxi Lights OFF at 410 Feet
22:37 You exceeded maximum bank angle
22:37 Flaps 2 Selected at 1400ft and 150kts
22:38 Flaps 0 Selected at 1650ft and 186kts
22:40 Above FL100 you need to switch of the landing lights
22:40 Landing Lights OFF at 10300 AGL
22:45 TOC Reached
23:08 Landing Lights ON at 9770 AGL
23:08 Below 10000 feet you are not allowed to go over 250 knots
23:14 Flaps 1 Selected at 2580ft and 203kts
23:15 Flaps 3 Selected at 1950ft and 182kts
23:15 Landing Gear Down @ 178 Knots and 1900 Feet
23:16 Flaps 4 Selected at 1680ft and 170kts
23:16 Taxi Lights ON at 1640 Feet
23:16 Flaps 5 Selected at 1590ft and 166kts
23:19 You Landed @ 133 Knots with -259 Vertical Speed With a heading of 73 and with 1.7584 G Force
Arrival Weather: LGAL 151950Z 34005KT CAVOK 22/18 Q1013
Arrival Coordinates 40.8545439762254/ 25.9470558231629
Landing Weight=58943KG Fuel Weight=3098KG
23:19 Taxiing to gate
23:19 Paused
23:19 Landing Lights OFF at 40 AGL
23:19 Strobe Lights OFF at 40 Feet
23:19 Flaps 0 Selected at 40ft and 29kts
23:19 Brakes are On
Pirep logged with OA Virtual Tracking 1.0.2.4

Route Map